sensor_id;sensor_type;location;lat;lon;timestamp;P1;durP1;ratioP1;P2;durP2;ratioP2
5688;SDS011;2869;50.432;8.680;2023-03-26T00:01:46;8.43;;;2.60;;
5688;SDS011;2869;50.432;8.680;2023-03-26T00:04:13;11.57;;;3.63;;
5688;SDS011;2869;50.432;8.680;2023-03-26T00:06:43;9.13;;;2.50;;
5688;SDS011;2869;50.432;8.680;2023-03-26T00:09:13;10.67;;;2.13;;
5688;SDS011;2869;50.432;8.680;2023-03-26T00:11:40;6.50;;;2.50;;
5688;SDS011;2869;50.432;8.680;2023-03-26T00:14:09;9.67;;;2.87;;
5688;SDS011;2869;50.432;8.680;2023-03-26T00:16:38;16.43;;;2.90;;
5688;SDS011;2869;50.432;8.680;2023-03-26T00:19:06;14.70;;;2.80;;
5688;SDS011;2869;50.432;8.680;2023-03-26T00:21:34;11.73;;;2.53;;
5688;SDS011;2869;50.432;8.680;2023-03-26T00:24:02;14.60;;;2.80;;
5688;SDS011;2869;50.432;8.680;2023-03-26T00:26:31;13.43;;;2.50;;
5688;SDS011;2869;50.432;8.680;2023-03-26T00:28:58;13.93;;;4.00;;
5688;SDS011;2869;50.432;8.680;2023-03-26T00:31:26;14.80;;;3.77;;
5688;SDS011;2869;50.432;8.680;2023-03-26T00:33:53;12.27;;;2.40;;
5688;SDS011;2869;50.432;8.680;2023-03-26T00:36:20;10.47;;;2.43;;
5688;SDS011;2869;50.432;8.680;2023-03-26T00:38:49;11.13;;;3.00;;
5688;SDS011;2869;50.432;8.680;2023-03-26T00:41:17;15.87;;;2.90;;
5688;SDS011;2869;50.432;8.680;2023-03-26T00:43:50;7.33;;;2.80;;
5688;SDS011;2869;50.432;8.680;2023-03-26T00:46:20;13.53;;;2.43;;
5688;SDS011;2869;50.432;8.680;2023-03-26T00:48:48;9.77;;;2.87;;
5688;SDS011;2869;50.432;8.680;2023-03-26T00:51:16;11.53;;;2.23;;
5688;SDS011;2869;50.432;8.680;2023-03-26T00:53:45;8.27;;;2.83;;
5688;SDS011;2869;50.432;8.680;2023-03-26T00:56:13;10.00;;;2.80;;
5688;SDS011;2869;50.432;8.680;2023-03-26T00:58:40;15.60;;;2.83;;
5688;SDS011;2869;50.432;8.680;2023-03-26T01:01:08;12.30;;;3.37;;
5688;SDS011;2869;50.432;8.680;2023-03-26T01:03:39;12.53;;;3.53;;
5688;SDS011;2869;50.432;8.680;2023-03-26T01:06:09;19.50;;;3.90;;
5688;SDS011;2869;50.432;8.680;2023-03-26T01:08:38;17.87;;;3.37;;
5688;SDS011;2869;50.432;8.680;2023-03-26T01:11:07;23.17;;;3.70;;
5688;SDS011;2869;50.432;8.680;2023-03-26T01:13:38;16.93;;;3.43;;
5688;SDS011;2869;50.432;8.680;2023-03-26T01:16:21;8.90;;;2.70;;
5688;SDS011;2869;50.432;8.680;2023-03-26T01:18:51;8.40;;;2.60;;
5688;SDS011;2869;50.432;8.680;2023-03-26T01:21:21;10.73;;;2.67;;
5688;SDS011;2869;50.432;8.680;2023-03-26T01:23:56;7.57;;;3.10;;
5688;SDS011;2869;50.432;8.680;2023-03-26T01:26:29;23.17;;;2.50;;
5688;SDS011;2869;50.432;8.680;2023-03-26T01:29:10;10.17;;;2.93;;
5688;SDS011;2869;50.432;8.680;2023-03-26T01:31:46;14.83;;;3.30;;
5688;SDS011;2869;50.432;8.680;2023-03-26T01:34:23;14.43;;;3.40;;
5688;SDS011;2869;50.432;8.680;2023-03-26T01:36:59;18.63;;;3.40;;
5688;SDS011;2869;50.432;8.680;2023-03-26T01:39:34;16.57;;;3.60;;
5688;SDS011;2869;50.432;8.680;2023-03-26T01:42:14;9.57;;;2.53;;
5688;SDS011;2869;50.432;8.680;2023-03-26T01:44:47;12.00;;;2.70;;
5688;SDS011;2869;50.432;8.680;2023-03-26T01:47:18;14.00;;;5.43;;
5688;SDS011;2869;50.432;8.680;2023-03-26T01:49:45;12.13;;;3.57;;
5688;SDS011;2869;50.432;8.680;2023-03-26T01:52:13;11.20;;;3.03;;
5688;SDS011;2869;50.432;8.680;2023-03-26T01:54:43;14.23;;;3.00;;
5688;SDS011;2869;50.432;8.680;2023-03-26T01:57:13;7.93;;;2.70;;
5688;SDS011;2869;50.432;8.680;2023-03-26T01:59:46;18.60;;;3.67;;
5688;SDS011;2869;50.432;8.680;2023-03-26T02:02:25;13.57;;;2.77;;
5688;SDS011;2869;50.432;8.680;2023-03-26T02:05:02;9.37;;;2.90;;
5688;SDS011;2869;50.432;8.680;2023-03-26T02:07:36;22.30;;;3.73;;
5688;SDS011;2869;50.432;8.680;2023-03-26T02:10:09;10.10;;;2.83;;
5688;SDS011;2869;50.432;8.680;2023-03-26T02:12:40;12.90;;;3.20;;
5688;SDS011;2869;50.432;8.680;2023-03-26T02:15:09;15.43;;;4.07;;
5688;SDS011;2869;50.432;8.680;2023-03-26T02:17:36;10.80;;;2.73;;
5688;SDS011;2869;50.432;8.680;2023-03-26T02:20:05;14.97;;;2.90;;
5688;SDS011;2869;50.432;8.680;2023-03-26T02:22:33;10.90;;;3.17;;
5688;SDS011;2869;50.432;8.680;2023-03-26T02:25:05;14.07;;;3.10;;
5688;SDS011;2869;50.432;8.680;2023-03-26T02:27:34;18.63;;;3.60;;
5688;SDS011;2869;50.432;8.680;2023-03-26T02:30:00;7.53;;;2.60;;
5688;SDS011;2869;50.432;8.680;2023-03-26T02:32:27;10.80;;;3.47;;
5688;SDS011;2869;50.432;8.680;2023-03-26T02:34:54;14.20;;;3.00;;
5688;SDS011;2869;50.432;8.680;2023-03-26T02:37:21;17.83;;;3.80;;
5688;SDS011;2869;50.432;8.680;2023-03-26T02:39:47;13.20;;;3.20;;
5688;SDS011;2869;50.432;8.680;2023-03-26T02:42:14;18.80;;;3.90;;
5688;SDS011;2869;50.432;8.680;2023-03-26T02:44:42;13.83;;;3.33;;
5688;SDS011;2869;50.432;8.680;2023-03-26T02:47:09;17.70;;;3.47;;
5688;SDS011;2869;50.432;8.680;2023-03-26T02:49:35;20.23;;;3.23;;
5688;SDS011;2869;50.432;8.680;2023-03-26T02:52:02;13.30;;;3.63;;
5688;SDS011;2869;50.432;8.680;2023-03-26T02:54:30;16.47;;;3.20;;
5688;SDS011;2869;50.432;8.680;2023-03-26T02:56:57;10.83;;;2.80;;
5688;SDS011;2869;50.432;8.680;2023-03-26T02:59:23;14.33;;;3.03;;
5688;SDS011;2869;50.432;8.680;2023-03-26T03:01:52;16.37;;;3.20;;
5688;SDS011;2869;50.432;8.680;2023-03-26T03:04:19;14.40;;;3.60;;
5688;SDS011;2869;50.432;8.680;2023-03-26T03:06:45;23.83;;;4.00;;
5688;SDS011;2869;50.432;8.680;2023-03-26T03:09:16;16.40;;;3.77;;
5688;SDS011;2869;50.432;8.680;2023-03-26T03:11:43;14.17;;;2.60;;
5688;SDS011;2869;50.432;8.680;2023-03-26T03:14:10;9.70;;;4.63;;
5688;SDS011;2869;50.432;8.680;2023-03-26T03:16:37;16.80;;;3.40;;
5688;SDS011;2869;50.432;8.680;2023-03-26T03:19:05;16.63;;;2.87;;
5688;SDS011;2869;50.432;8.680;2023-03-26T03:21:31;13.10;;;3.17;;
5688;SDS011;2869;50.432;8.680;2023-03-26T03:23:58;15.20;;;3.60;;
5688;SDS011;2869;50.432;8.680;2023-03-26T03:26:25;16.83;;;2.87;;
5688;SDS011;2869;50.432;8.680;2023-03-26T03:28:54;9.77;;;3.00;;
5688;SDS011;2869;50.432;8.680;2023-03-26T03:31:22;5.47;;;2.60;;
5688;SDS011;2869;50.432;8.680;2023-03-26T03:33:49;12.53;;;2.60;;
5688;SDS011;2869;50.432;8.680;2023-03-26T03:36:20;18.10;;;3.07;;
5688;SDS011;2869;50.432;8.680;2023-03-26T03:38:48;14.70;;;3.27;;
5688;SDS011;2869;50.432;8.680;2023-03-26T03:41:15;22.93;;;3.80;;
5688;SDS011;2869;50.432;8.680;2023-03-26T03:43:42;15.33;;;2.93;;
5688;SDS011;2869;50.432;8.680;2023-03-26T03:46:09;8.97;;;3.60;;
5688;SDS011;2869;50.432;8.680;2023-03-26T03:48:36;7.50;;;2.80;;
5688;SDS011;2869;50.432;8.680;2023-03-26T03:51:03;8.20;;;2.60;;
5688;SDS011;2869;50.432;8.680;2023-03-26T03:53:32;7.43;;;2.53;;
5688;SDS011;2869;50.432;8.680;2023-03-26T03:56:01;17.13;;;3.27;;
5688;SDS011;2869;50.432;8.680;2023-03-26T03:58:28;12.57;;;2.93;;
5688;SDS011;2869;50.432;8.680;2023-03-26T04:00:55;14.43;;;3.60;;
5688;SDS011;2869;50.432;8.680;2023-03-26T04:03:24;18.90;;;3.17;;
5688;SDS011;2869;50.432;8.680;2023-03-26T04:05:52;9.90;;;2.93;;
5688;SDS011;2869;50.432;8.680;2023-03-26T04:08:19;13.50;;;3.17;;
5688;SDS011;2869;50.432;8.680;2023-03-26T04:10:48;13.83;;;3.20;;
5688;SDS011;2869;50.432;8.680;2023-03-26T04:13:15;16.43;;;3.37;;
5688;SDS011;2869;50.432;8.680;2023-03-26T04:15:42;12.10;;;3.13;;
5688;SDS011;2869;50.432;8.680;2023-03-26T04:18:09;10.33;;;3.17;;
5688;SDS011;2869;50.432;8.680;2023-03-26T04:20:36;6.87;;;2.60;;
5688;SDS011;2869;50.432;8.680;2023-03-26T04:23:05;15.30;;;3.10;;
5688;SDS011;2869;50.432;8.680;2023-03-26T04:25:32;9.03;;;3.17;;
5688;SDS011;2869;50.432;8.680;2023-03-26T04:28:02;11.03;;;3.07;;
5688;SDS011;2869;50.432;8.680;2023-03-26T04:30:33;11.27;;;2.70;;
5688;SDS011;2869;50.432;8.680;2023-03-26T04:33:00;18.03;;;3.57;;
5688;SDS011;2869;50.432;8.680;2023-03-26T04:35:28;14.10;;;3.53;;
5688;SDS011;2869;50.432;8.680;2023-03-26T04:37:58;7.70;;;3.00;;
5688;SDS011;2869;50.432;8.680;2023-03-26T04:40:25;15.07;;;3.43;;
5688;SDS011;2869;50.432;8.680;2023-03-26T04:42:54;9.53;;;2.73;;
5688;SDS011;2869;50.432;8.680;2023-03-26T04:45:23;16.37;;;3.10;;
5688;SDS011;2869;50.432;8.680;2023-03-26T04:47:50;23.17;;;4.10;;
5688;SDS011;2869;50.432;8.680;2023-03-26T04:50:17;9.83;;;3.40;;
5688;SDS011;2869;50.432;8.680;2023-03-26T04:52:43;14.33;;;3.10;;
5688;SDS011;2869;50.432;8.680;2023-03-26T04:55:12;11.30;;;2.90;;
5688;SDS011;2869;50.432;8.680;2023-03-26T04:57:44;18.63;;;3.30;;
5688;SDS011;2869;50.432;8.680;2023-03-26T05:00:18;17.33;;;3.60;;
5688;SDS011;2869;50.432;8.680;2023-03-26T05:02:46;12.13;;;2.73;;
5688;SDS011;2869;50.432;8.680;2023-03-26T05:05:14;11.77;;;2.97;;
5688;SDS011;2869;50.432;8.680;2023-03-26T05:07:41;13.67;;;3.20;;
5688;SDS011;2869;50.432;8.680;2023-03-26T05:10:10;12.30;;;2.57;;
5688;SDS011;2869;50.432;8.680;2023-03-26T05:12:38;15.67;;;3.40;;
5688;SDS011;2869;50.432;8.680;2023-03-26T05:15:05;12.73;;;2.67;;
5688;SDS011;2869;50.432;8.680;2023-03-26T05:17:32;12.40;;;3.03;;
5688;SDS011;2869;50.432;8.680;2023-03-26T05:20:07;15.13;;;3.00;;
5688;SDS011;2869;50.432;8.680;2023-03-26T05:22:40;10.80;;;3.00;;
5688;SDS011;2869;50.432;8.680;2023-03-26T05:25:07;13.00;;;2.87;;
5688;SDS011;2869;50.432;8.680;2023-03-26T05:27:34;10.30;;;2.67;;
5688;SDS011;2869;50.432;8.680;2023-03-26T05:30:02;9.40;;;2.60;;
5688;SDS011;2869;50.432;8.680;2023-03-26T05:32:29;12.20;;;3.93;;
5688;SDS011;2869;50.432;8.680;2023-03-26T05:34:56;11.20;;;3.23;;
5688;SDS011;2869;50.432;8.680;2023-03-26T05:37:24;16.87;;;3.77;;
5688;SDS011;2869;50.432;8.680;2023-03-26T05:39:55;10.77;;;2.97;;
5688;SDS011;2869;50.432;8.680;2023-03-26T05:42:22;14.53;;;3.10;;
5688;SDS011;2869;50.432;8.680;2023-03-26T05:44:49;9.90;;;3.03;;
5688;SDS011;2869;50.432;8.680;2023-03-26T05:47:15;10.63;;;2.67;;
5688;SDS011;2869;50.432;8.680;2023-03-26T05:49:42;13.83;;;3.07;;
5688;SDS011;2869;50.432;8.680;2023-03-26T05:52:10;12.67;;;3.57;;
5688;SDS011;2869;50.432;8.680;2023-03-26T05:54:40;15.17;;;3.20;;
5688;SDS011;2869;50.432;8.680;2023-03-26T05:57:07;12.23;;;3.57;;
5688;SDS011;2869;50.432;8.680;2023-03-26T05:59:33;13.90;;;3.50;;
5688;SDS011;2869;50.432;8.680;2023-03-26T06:02:00;13.63;;;4.13;;
5688;SDS011;2869;50.432;8.680;2023-03-26T06:04:27;10.20;;;3.70;;
5688;SDS011;2869;50.432;8.680;2023-03-26T06:06:55;15.30;;;3.77;;
5688;SDS011;2869;50.432;8.680;2023-03-26T06:09:22;10.40;;;3.17;;
5688;SDS011;2869;50.432;8.680;2023-03-26T06:11:50;12.90;;;3.37;;
5688;SDS011;2869;50.432;8.680;2023-03-26T06:14:17;13.37;;;3.67;;
5688;SDS011;2869;50.432;8.680;2023-03-26T06:16:43;17.87;;;4.17;;
5688;SDS011;2869;50.432;8.680;2023-03-26T06:19:10;12.53;;;4.23;;
5688;SDS011;2869;50.432;8.680;2023-03-26T06:21:37;13.63;;;4.00;;
5688;SDS011;2869;50.432;8.680;2023-03-26T06:24:04;12.20;;;3.73;;
5688;SDS011;2869;50.432;8.680;2023-03-26T06:26:31;12.57;;;3.87;;
5688;SDS011;2869;50.432;8.680;2023-03-26T06:28:58;8.40;;;3.00;;
5688;SDS011;2869;50.432;8.680;2023-03-26T06:31:25;14.83;;;3.33;;
5688;SDS011;2869;50.432;8.680;2023-03-26T06:33:52;15.47;;;3.77;;
5688;SDS011;2869;50.432;8.680;2023-03-26T06:36:18;15.17;;;3.57;;
5688;SDS011;2869;50.432;8.680;2023-03-26T06:38:45;12.10;;;3.90;;
5688;SDS011;2869;50.432;8.680;2023-03-26T06:41:12;16.03;;;3.77;;
5688;SDS011;2869;50.432;8.680;2023-03-26T06:43:38;6.23;;;3.30;;
5688;SDS011;2869;50.432;8.680;2023-03-26T06:46:06;9.67;;;4.00;;
5688;SDS011;2869;50.432;8.680;2023-03-26T06:48:33;14.90;;;4.97;;
5688;SDS011;2869;50.432;8.680;2023-03-26T06:51:00;18.67;;;4.47;;
5688;SDS011;2869;50.432;8.680;2023-03-26T06:53:26;16.70;;;3.70;;
5688;SDS011;2869;50.432;8.680;2023-03-26T06:55:53;15.00;;;3.93;;
5688;SDS011;2869;50.432;8.680;2023-03-26T06:58:20;11.10;;;4.13;;
5688;SDS011;2869;50.432;8.680;2023-03-26T07:00:47;12.87;;;3.77;;
5688;SDS011;2869;50.432;8.680;2023-03-26T07:03:14;16.70;;;4.40;;
5688;SDS011;2869;50.432;8.680;2023-03-26T07:05:42;13.30;;;4.63;;
5688;SDS011;2869;50.432;8.680;2023-03-26T07:08:08;10.17;;;4.40;;
5688;SDS011;2869;50.432;8.680;2023-03-26T07:10:35;14.53;;;4.43;;
5688;SDS011;2869;50.432;8.680;2023-03-26T07:13:02;11.50;;;4.10;;
5688;SDS011;2869;50.432;8.680;2023-03-26T07:15:28;16.93;;;4.67;;
5688;SDS011;2869;50.432;8.680;2023-03-26T07:17:55;12.77;;;4.30;;
5688;SDS011;2869;50.432;8.680;2023-03-26T07:20:23;15.80;;;4.60;;
5688;SDS011;2869;50.432;8.680;2023-03-26T07:22:50;20.13;;;4.70;;
5688;SDS011;2869;50.432;8.680;2023-03-26T07:25:17;12.10;;;4.03;;
5688;SDS011;2869;50.432;8.680;2023-03-26T07:27:46;15.37;;;5.63;;
5688;SDS011;2869;50.432;8.680;2023-03-26T07:30:24;14.63;;;4.50;;
5688;SDS011;2869;50.432;8.680;2023-03-26T07:32:57;21.33;;;5.03;;
5688;SDS011;2869;50.432;8.680;2023-03-26T07:35:29;15.00;;;4.60;;
5688;SDS011;2869;50.432;8.680;2023-03-26T07:38:03;16.03;;;5.57;;
5688;SDS011;2869;50.432;8.680;2023-03-26T07:40:48;11.93;;;5.17;;
5688;SDS011;2869;50.432;8.680;2023-03-26T07:43:28;19.37;;;6.07;;
5688;SDS011;2869;50.432;8.680;2023-03-26T07:46:06;16.10;;;5.33;;
5688;SDS011;2869;50.432;8.680;2023-03-26T07:48:38;20.17;;;5.90;;
5688;SDS011;2869;50.432;8.680;2023-03-26T07:51:08;13.00;;;5.90;;
5688;SDS011;2869;50.432;8.680;2023-03-26T07:53:36;30.27;;;5.57;;
5688;SDS011;2869;50.432;8.680;2023-03-26T07:56:04;19.77;;;5.60;;
5688;SDS011;2869;50.432;8.680;2023-03-26T07:58:40;18.23;;;5.90;;
5688;SDS011;2869;50.432;8.680;2023-03-26T08:01:23;21.53;;;6.60;;
5688;SDS011;2869;50.432;8.680;2023-03-26T08:04:11;19.87;;;5.90;;
5688;SDS011;2869;50.432;8.680;2023-03-26T08:06:53;14.13;;;5.57;;
5688;SDS011;2869;50.432;8.680;2023-03-26T08:09:26;19.67;;;5.97;;
5688;SDS011;2869;50.432;8.680;2023-03-26T08:12:00;16.93;;;6.13;;
5688;SDS011;2869;50.432;8.680;2023-03-26T08:14:39;21.17;;;6.20;;
5688;SDS011;2869;50.432;8.680;2023-03-26T08:17:13;15.67;;;5.50;;
5688;SDS011;2869;50.432;8.680;2023-03-26T08:19:50;16.40;;;6.70;;
5688;SDS011;2869;50.432;8.680;2023-03-26T08:22:31;17.37;;;5.80;;
5688;SDS011;2869;50.432;8.680;2023-03-26T08:25:16;18.00;;;6.23;;
5688;SDS011;2869;50.432;8.680;2023-03-26T08:28:02;29.83;;;7.20;;
5688;SDS011;2869;50.432;8.680;2023-03-26T08:30:38;22.80;;;6.30;;
5688;SDS011;2869;50.432;8.680;2023-03-26T08:33:09;21.87;;;6.63;;
5688;SDS011;2869;50.432;8.680;2023-03-26T08:35:38;28.73;;;6.80;;
5688;SDS011;2869;50.432;8.680;2023-03-26T08:38:07;26.10;;;6.40;;
5688;SDS011;2869;50.432;8.680;2023-03-26T08:43:40;19.77;;;7.10;;
5688;SDS011;2869;50.432;8.680;2023-03-26T08:46:46;21.90;;;6.70;;
5688;SDS011;2869;50.432;8.680;2023-03-26T08:52:27;17.83;;;6.70;;
5688;SDS011;2869;50.432;8.680;2023-03-26T08:55:12;30.57;;;7.47;;
5688;SDS011;2869;50.432;8.680;2023-03-26T08:58:08;21.90;;;7.83;;
5688;SDS011;2869;50.432;8.680;2023-03-26T09:00:58;20.53;;;7.07;;
5688;SDS011;2869;50.432;8.680;2023-03-26T09:03:50;14.90;;;7.10;;
5688;SDS011;2869;50.432;8.680;2023-03-26T09:06:35;19.57;;;6.43;;
5688;SDS011;2869;50.432;8.680;2023-03-26T09:12:51;15.83;;;6.97;;
5688;SDS011;2869;50.432;8.680;2023-03-26T09:15:54;17.97;;;6.33;;
5688;SDS011;2869;50.432;8.680;2023-03-26T09:21:46;19.57;;;7.20;;
5688;SDS011;2869;50.432;8.680;2023-03-26T09:24:36;18.75;;;8.10;;
5688;SDS011;2869;50.432;8.680;2023-03-26T09:27:23;20.97;;;9.30;;
5688;SDS011;2869;50.432;8.680;2023-03-26T09:36:05;11.87;;;6.43;;
5688;SDS011;2869;50.432;8.680;2023-03-26T09:38:54;16.50;;;6.97;;
5688;SDS011;2869;50.432;8.680;2023-03-26T09:41:34;20.07;;;7.50;;
5688;SDS011;2869;50.432;8.680;2023-03-26T09:44:20;18.70;;;6.60;;
5688;SDS011;2869;50.432;8.680;2023-03-26T09:49:52;14.83;;;6.30;;
5688;SDS011;2869;50.432;8.680;2023-03-26T09:52:42;19.10;;;6.10;;
5688;SDS011;2869;50.432;8.680;2023-03-26T09:58:17;26.00;;;6.83;;
5688;SDS011;2869;50.432;8.680;2023-03-26T10:00:56;15.17;;;6.37;;
5688;SDS011;2869;50.432;8.680;2023-03-26T10:03:40;15.27;;;5.83;;
5688;SDS011;2869;50.432;8.680;2023-03-26T10:06:26;12.00;;;6.07;;
5688;SDS011;2869;50.432;8.680;2023-03-26T10:09:13;9.93;;;5.33;;
5688;SDS011;2869;50.432;8.680;2023-03-26T10:12:00;11.43;;;5.70;;
5688;SDS011;2869;50.432;8.680;2023-03-26T10:14:37;9.37;;;4.40;;
5688;SDS011;2869;50.432;8.680;2023-03-26T10:17:13;11.97;;;4.40;;
5688;SDS011;2869;50.432;8.680;2023-03-26T10:20:02;9.83;;;4.03;;
5688;SDS011;2869;50.432;8.680;2023-03-26T10:22:45;13.67;;;4.77;;
5688;SDS011;2869;50.432;8.680;2023-03-26T10:25:27;7.80;;;3.70;;
5688;SDS011;2869;50.432;8.680;2023-03-26T10:28:02;7.97;;;3.60;;
5688;SDS011;2869;50.432;8.680;2023-03-26T10:30:42;5.53;;;2.97;;
5688;SDS011;2869;50.432;8.680;2023-03-26T10:33:20;6.20;;;3.00;;
5688;SDS011;2869;50.432;8.680;2023-03-26T10:36:01;2.90;;;2.50;;
5688;SDS011;2869;50.432;8.680;2023-03-26T10:38:49;3.60;;;2.40;;
5688;SDS011;2869;50.432;8.680;2023-03-26T10:41:29;5.57;;;2.30;;
5688;SDS011;2869;50.432;8.680;2023-03-26T10:44:15;11.90;;;2.83;;
5688;SDS011;2869;50.432;8.680;2023-03-26T10:46:58;4.30;;;3.00;;
5688;SDS011;2869;50.432;8.680;2023-03-26T10:49:52;8.23;;;2.70;;
5688;SDS011;2869;50.432;8.680;2023-03-26T10:52:30;4.53;;;2.60;;
5688;SDS011;2869;50.432;8.680;2023-03-26T10:55:03;4.90;;;2.60;;
5688;SDS011;2869;50.432;8.680;2023-03-26T10:57:37;4.73;;;2.60;;
5688;SDS011;2869;50.432;8.680;2023-03-26T11:00:12;6.80;;;3.03;;
5688;SDS011;2869;50.432;8.680;2023-03-26T11:02:44;5.77;;;3.83;;
5688;SDS011;2869;50.432;8.680;2023-03-26T11:05:22;10.40;;;3.90;;
5688;SDS011;2869;50.432;8.680;2023-03-26T11:08:07;5.83;;;3.60;;
5688;SDS011;2869;50.432;8.680;2023-03-26T11:10:41;7.67;;;3.90;;
5688;SDS011;2869;50.432;8.680;2023-03-26T11:13:17;6.77;;;3.43;;
5688;SDS011;2869;50.432;8.680;2023-03-26T11:15:51;14.77;;;4.13;;
5688;SDS011;2869;50.432;8.680;2023-03-26T11:18:27;23.07;;;3.83;;
5688;SDS011;2869;50.432;8.680;2023-03-26T11:21:03;10.10;;;4.27;;
5688;SDS011;2869;50.432;8.680;2023-03-26T11:23:35;13.10;;;5.00;;
5688;SDS011;2869;50.432;8.680;2023-03-26T11:26:06;5.73;;;3.80;;
5688;SDS011;2869;50.432;8.680;2023-03-26T11:28:39;12.57;;;4.73;;
5688;SDS011;2869;50.432;8.680;2023-03-26T11:31:22;9.33;;;4.10;;
5688;SDS011;2869;50.432;8.680;2023-03-26T11:33:54;8.33;;;4.13;;
5688;SDS011;2869;50.432;8.680;2023-03-26T11:36:24;12.10;;;4.20;;
5688;SDS011;2869;50.432;8.680;2023-03-26T11:38:57;11.37;;;5.00;;
5688;SDS011;2869;50.432;8.680;2023-03-26T11:41:27;9.27;;;5.03;;
5688;SDS011;2869;50.432;8.680;2023-03-26T11:43:56;14.60;;;5.57;;
5688;SDS011;2869;50.432;8.680;2023-03-26T11:46:26;8.00;;;4.43;;
5688;SDS011;2869;50.432;8.680;2023-03-26T11:48:54;7.63;;;4.30;;
5688;SDS011;2869;50.432;8.680;2023-03-26T11:51:24;12.73;;;4.93;;
5688;SDS011;2869;50.432;8.680;2023-03-26T11:53:56;6.73;;;4.10;;
5688;SDS011;2869;50.432;8.680;2023-03-26T11:56:25;7.07;;;4.43;;
5688;SDS011;2869;50.432;8.680;2023-03-26T11:58:55;6.80;;;4.30;;
5688;SDS011;2869;50.432;8.680;2023-03-26T12:01:27;9.13;;;4.63;;
5688;SDS011;2869;50.432;8.680;2023-03-26T12:04:07;9.13;;;4.53;;
5688;SDS011;2869;50.432;8.680;2023-03-26T12:06:38;11.30;;;4.90;;
5688;SDS011;2869;50.432;8.680;2023-03-26T12:09:16;7.80;;;4.30;;
5688;SDS011;2869;50.432;8.680;2023-03-26T12:11:44;8.93;;;4.90;;
5688;SDS011;2869;50.432;8.680;2023-03-26T12:14:15;10.30;;;4.90;;
5688;SDS011;2869;50.432;8.680;2023-03-26T12:16:56;8.00;;;4.27;;
5688;SDS011;2869;50.432;8.680;2023-03-26T12:19:24;12.13;;;4.40;;
5688;SDS011;2869;50.432;8.680;2023-03-26T12:21:53;12.63;;;4.63;;
5688;SDS011;2869;50.432;8.680;2023-03-26T12:24:25;8.33;;;4.17;;
5688;SDS011;2869;50.432;8.680;2023-03-26T12:26:55;6.50;;;4.20;;
5688;SDS011;2869;50.432;8.680;2023-03-26T12:29:25;7.30;;;4.10;;
5688;SDS011;2869;50.432;8.680;2023-03-26T12:31:54;9.73;;;4.43;;
5688;SDS011;2869;50.432;8.680;2023-03-26T12:34:22;6.43;;;3.90;;
5688;SDS011;2869;50.432;8.680;2023-03-26T12:36:58;5.87;;;4.10;;
5688;SDS011;2869;50.432;8.680;2023-03-26T12:39:28;7.90;;;4.83;;
5688;SDS011;2869;50.432;8.680;2023-03-26T12:41:58;6.80;;;4.00;;
5688;SDS011;2869;50.432;8.680;2023-03-26T12:44:27;4.70;;;3.97;;
5688;SDS011;2869;50.432;8.680;2023-03-26T12:47:05;9.07;;;4.57;;
5688;SDS011;2869;50.432;8.680;2023-03-26T12:49:39;12.30;;;4.50;;
5688;SDS011;2869;50.432;8.680;2023-03-26T12:52:08;9.80;;;4.10;;
5688;SDS011;2869;50.432;8.680;2023-03-26T12:54:48;8.83;;;4.73;;
5688;SDS011;2869;50.432;8.680;2023-03-26T12:57:24;6.77;;;4.47;;
5688;SDS011;2869;50.432;8.680;2023-03-26T13:02:56;11.60;;;5.13;;
5688;SDS011;2869;50.432;8.680;2023-03-26T13:05:40;8.00;;;4.53;;
5688;SDS011;2869;50.432;8.680;2023-03-26T13:08:22;8.73;;;4.73;;
5688;SDS011;2869;50.432;8.680;2023-03-26T13:11:07;8.17;;;4.90;;
5688;SDS011;2869;50.432;8.680;2023-03-26T13:13:43;6.10;;;3.57;;
5688;SDS011;2869;50.432;8.680;2023-03-26T13:16:34;3.83;;;3.53;;
5688;SDS011;2869;50.432;8.680;2023-03-26T13:19:06;4.50;;;3.20;;
5688;SDS011;2869;50.432;8.680;2023-03-26T13:21:40;4.57;;;3.90;;
5688;SDS011;2869;50.432;8.680;2023-03-26T13:24:18;3.30;;;2.60;;
5688;SDS011;2869;50.432;8.680;2023-03-26T13:26:57;3.43;;;1.93;;
5688;SDS011;2869;50.432;8.680;2023-03-26T13:29:36;2.67;;;2.10;;
5688;SDS011;2869;50.432;8.680;2023-03-26T13:32:11;3.00;;;2.33;;
5688;SDS011;2869;50.432;8.680;2023-03-26T13:34:48;4.60;;;3.37;;
5688;SDS011;2869;50.432;8.680;2023-03-26T13:37:26;4.67;;;3.00;;
5688;SDS011;2869;50.432;8.680;2023-03-26T13:40:00;5.87;;;2.93;;
5688;SDS011;2869;50.432;8.680;2023-03-26T13:42:43;9.10;;;2.97;;
5688;SDS011;2869;50.432;8.680;2023-03-26T13:45:21;9.50;;;3.40;;
5688;SDS011;2869;50.432;8.680;2023-03-26T13:48:05;2.47;;;1.70;;
5688;SDS011;2869;50.432;8.680;2023-03-26T13:50:38;5.47;;;1.43;;
5688;SDS011;2869;50.432;8.680;2023-03-26T13:53:08;1.33;;;1.23;;
5688;SDS011;2869;50.432;8.680;2023-03-26T13:55:39;2.50;;;1.50;;
5688;SDS011;2869;50.432;8.680;2023-03-26T13:58:12;1.40;;;1.30;;
5688;SDS011;2869;50.432;8.680;2023-03-26T14:00:48;1.30;;;1.20;;
5688;SDS011;2869;50.432;8.680;2023-03-26T14:03:19;2.60;;;1.27;;
5688;SDS011;2869;50.432;8.680;2023-03-26T14:05:53;1.77;;;1.67;;
5688;SDS011;2869;50.432;8.680;2023-03-26T14:08:23;2.80;;;1.47;;
5688;SDS011;2869;50.432;8.680;2023-03-26T14:10:54;1.67;;;1.40;;
5688;SDS011;2869;50.432;8.680;2023-03-26T14:13:31;2.70;;;1.57;;
5688;SDS011;2869;50.432;8.680;2023-03-26T14:16:05;4.60;;;1.30;;
5688;SDS011;2869;50.432;8.680;2023-03-26T14:18:37;4.07;;;1.33;;
5688;SDS011;2869;50.432;8.680;2023-03-26T14:21:23;1.53;;;1.43;;
5688;SDS011;2869;50.432;8.680;2023-03-26T14:27:09;1.83;;;1.30;;
5688;SDS011;2869;50.432;8.680;2023-03-26T14:29:51;1.40;;;1.10;;
5688;SDS011;2869;50.432;8.680;2023-03-26T14:32:31;2.67;;;1.23;;
5688;SDS011;2869;50.432;8.680;2023-03-26T14:35:19;3.83;;;1.40;;
5688;SDS011;2869;50.432;8.680;2023-03-26T14:37:56;2.33;;;1.50;;
5688;SDS011;2869;50.432;8.680;2023-03-26T14:40:47;4.30;;;2.50;;
5688;SDS011;2869;50.432;8.680;2023-03-26T14:43:29;2.00;;;1.30;;
5688;SDS011;2869;50.432;8.680;2023-03-26T14:46:29;1.83;;;1.20;;
5688;SDS011;2869;50.432;8.680;2023-03-26T14:49:09;1.10;;;1.00;;
5688;SDS011;2869;50.432;8.680;2023-03-26T14:51:56;1.93;;;1.83;;
5688;SDS011;2869;50.432;8.680;2023-03-26T14:54:27;2.77;;;1.43;;
5688;SDS011;2869;50.432;8.680;2023-03-26T14:57:12;1.80;;;1.37;;
5688;SDS011;2869;50.432;8.680;2023-03-26T15:00:05;2.30;;;1.30;;
5688;SDS011;2869;50.432;8.680;2023-03-26T15:03:04;1.40;;;1.30;;
5688;SDS011;2869;50.432;8.680;2023-03-26T15:05:57;1.30;;;1.20;;
5688;SDS011;2869;50.432;8.680;2023-03-26T15:08:54;1.10;;;1.00;;
5688;SDS011;2869;50.432;8.680;2023-03-26T15:11:46;3.70;;;1.40;;
5688;SDS011;2869;50.432;8.680;2023-03-26T15:26:40;6.50;;;1.40;;
5688;SDS011;2869;50.432;8.680;2023-03-26T15:33:07;2.37;;;2.17;;
5688;SDS011;2869;50.432;8.680;2023-03-26T15:36:08;1.40;;;1.30;;
5688;SDS011;2869;50.432;8.680;2023-03-26T15:39:13;2.93;;;1.30;;
5688;SDS011;2869;50.432;8.680;2023-03-26T15:42:11;3.73;;;1.80;;
5688;SDS011;2869;50.432;8.680;2023-03-26T15:44:49;1.80;;;1.57;;
5688;SDS011;2869;50.432;8.680;2023-03-26T15:47:25;1.30;;;1.20;;
5688;SDS011;2869;50.432;8.680;2023-03-26T15:50:14;1.60;;;1.50;;
5688;SDS011;2869;50.432;8.680;2023-03-26T15:52:50;1.83;;;1.40;;
5688;SDS011;2869;50.432;8.680;2023-03-26T15:55:24;1.77;;;1.43;;
5688;SDS011;2869;50.432;8.680;2023-03-26T15:57:59;1.40;;;1.30;;
5688;SDS011;2869;50.432;8.680;2023-03-26T16:00:33;1.57;;;1.30;;
5688;SDS011;2869;50.432;8.680;2023-03-26T16:03:06;2.40;;;1.47;;
5688;SDS011;2869;50.432;8.680;2023-03-26T16:05:52;2.80;;;1.83;;
5688;SDS011;2869;50.432;8.680;2023-03-26T16:08:38;4.50;;;3.10;;
5688;SDS011;2869;50.432;8.680;2023-03-26T16:11:16;3.20;;;2.10;;
5688;SDS011;2869;50.432;8.680;2023-03-26T16:14:17;1.67;;;1.37;;
5688;SDS011;2869;50.432;8.680;2023-03-26T16:16:50;1.53;;;1.43;;
5688;SDS011;2869;50.432;8.680;2023-03-26T16:19:30;4.50;;;2.50;;
5688;SDS011;2869;50.432;8.680;2023-03-26T16:22:13;1.87;;;1.77;;
5688;SDS011;2869;50.432;8.680;2023-03-26T16:25:23;1.60;;;1.50;;
5688;SDS011;2869;50.432;8.680;2023-03-26T16:28:07;1.70;;;1.60;;
5688;SDS011;2869;50.432;8.680;2023-03-26T16:30:59;5.37;;;3.43;;
5688;SDS011;2869;50.432;8.680;2023-03-26T16:34:16;7.10;;;3.87;;
5688;SDS011;2869;50.432;8.680;2023-03-26T16:36:52;3.20;;;3.00;;